createdAt,value
2022-09-07T00:00:41.273Z,2.13
2022-09-07T00:03:08.231Z,2.27
2022-09-07T00:05:42.270Z,2.13
2022-09-07T00:08:09.350Z,2.30
2022-09-07T00:10:36.864Z,2.30
2022-09-07T00:13:05.246Z,2.57
2022-09-07T00:15:32.501Z,2.33
2022-09-07T00:17:59.808Z,2.60
2022-09-07T00:20:26.843Z,2.20
2022-09-07T00:22:53.804Z,2.40
2022-09-07T00:25:20.831Z,2.40
2022-09-07T00:27:47.795Z,2.50
2022-09-07T00:30:14.697Z,2.60
2022-09-07T00:32:41.677Z,2.63
2022-09-07T00:35:09.057Z,2.30
2022-09-07T00:37:35.935Z,2.53
2022-09-07T00:40:03.418Z,3.10
2022-09-07T00:42:30.395Z,2.30
2022-09-07T00:45:18.373Z,2.47
2022-09-07T00:48:06.937Z,3.00
2022-09-07T00:50:40.958Z,2.60
2022-09-07T00:53:20.099Z,2.50
2022-09-07T00:55:49.820Z,2.33
2022-09-07T00:58:17.917Z,2.10
2022-09-07T01:00:47.099Z,2.30
2022-09-07T01:03:23.903Z,2.20
2022-09-07T01:05:57.006Z,2.30
2022-09-07T01:08:24.455Z,2.20
2022-09-07T01:10:51.574Z,2.30
2022-09-07T01:13:18.493Z,2.43
2022-09-07T01:15:56.941Z,3.17
2022-09-07T01:18:59.228Z,2.70
2022-09-07T01:21:44.893Z,2.30
2022-09-07T01:24:48.723Z,2.30
2022-09-07T01:27:59.421Z,2.40
2022-09-07T01:30:29.476Z,2.73
2022-09-07T01:33:18.240Z,2.30
2022-09-07T01:35:50.518Z,2.67
2022-09-07T01:38:43.141Z,2.40
2022-09-07T01:41:25.183Z,2.50
2022-09-07T01:44:00.941Z,2.20
2022-09-07T01:46:57.637Z,2.53
2022-09-07T01:49:50.156Z,2.50
2022-09-07T01:52:29.459Z,2.63
2022-09-07T01:55:05.156Z,2.67
2022-09-07T01:57:49.966Z,2.67
2022-09-07T02:00:19.633Z,2.77
2022-09-07T02:02:52.489Z,2.73
2022-09-07T02:05:42.839Z,2.77
2022-09-07T02:08:15.003Z,3.13
2022-09-07T02:10:53.565Z,3.17
2022-09-07T02:13:26.713Z,2.93
2022-09-07T02:16:22.996Z,3.10
2022-09-07T02:18:54.895Z,3.20
2022-09-07T02:21:30.151Z,3.27
2022-09-07T02:24:15.210Z,3.50
2022-09-07T02:26:45.759Z,2.90
2022-09-07T02:29:12.654Z,3.30
2022-09-07T02:31:39.548Z,3.60
2022-09-07T02:34:07.476Z,2.87
2022-09-07T02:36:42.200Z,4.70
2022-09-07T02:39:09.246Z,3.83
2022-09-07T02:41:42.192Z,3.73
2022-09-07T02:44:17.606Z,3.70
2022-09-07T02:47:08.796Z,4.07
2022-09-07T02:49:57.883Z,3.93
2022-09-07T02:52:47.529Z,4.13
2022-09-07T02:55:45.497Z,3.97
2022-09-07T02:58:42.727Z,4.40
2022-09-07T03:01:31.782Z,4.30
2022-09-07T03:04:13.844Z,4.40
2022-09-07T03:06:45.229Z,4.30
2022-09-07T03:09:18.888Z,3.93
2022-09-07T03:11:46.187Z,4.73
2022-09-07T03:14:17.788Z,5.33
2022-09-07T03:16:46.111Z,4.97
2022-09-07T03:19:13.079Z,4.87
2022-09-07T03:21:39.897Z,5.70
2022-09-07T03:24:07.061Z,5.30
2022-09-07T03:26:35.514Z,5.00
2022-09-07T03:29:02.339Z,5.30
2022-09-07T03:31:29.144Z,5.73
2022-09-07T03:33:56.134Z,5.20
2022-09-07T03:36:23.055Z,6.20
2022-09-07T03:38:50.253Z,6.07
2022-09-07T03:41:17.199Z,6.30
2022-09-07T03:43:44.503Z,6.73
2022-09-07T03:46:11.661Z,6.60
2022-09-07T03:48:39.436Z,7.37
2022-09-07T03:51:09.661Z,7.30
2022-09-07T03:53:39.972Z,7.30
2022-09-07T03:56:09.945Z,8.07
2022-09-07T03:58:37.220Z,7.60
2022-09-07T04:01:09.656Z,7.33
2022-09-07T04:03:37.302Z,7.13
2022-09-07T04:06:05.126Z,7.87
2022-09-07T04:08:34.171Z,7.40
2022-09-07T04:11:03.020Z,7.03
2022-09-07T04:13:31.142Z,7.53
2022-09-07T04:15:58.668Z,7.37
2022-09-07T04:18:25.846Z,7.37
2022-09-07T04:20:52.963Z,7.43
2022-09-07T04:23:20.345Z,7.80
2022-09-07T04:25:51.588Z,8.10
2022-09-07T04:28:20.269Z,8.47
2022-09-07T04:30:47.913Z,9.03
2022-09-07T04:33:15.474Z,8.40
2022-09-07T04:35:43.339Z,9.20
2022-09-07T04:38:14.440Z,8.93
2022-09-07T04:40:42.048Z,10.63
2022-09-07T04:43:12.944Z,9.30
2022-09-07T04:45:40.422Z,9.63
2022-09-07T04:48:07.631Z,9.60
2022-09-07T04:50:34.789Z,10.60
2022-09-07T04:53:01.669Z,10.77
2022-09-07T04:55:28.582Z,10.97
2022-09-07T04:57:55.478Z,9.93
2022-09-07T05:00:22.623Z,10.33
2022-09-07T05:02:49.541Z,10.73
2022-09-07T05:05:16.634Z,10.80
2022-09-07T05:07:43.688Z,11.00
2022-09-07T05:10:10.806Z,11.77
2022-09-07T05:12:37.839Z,10.33
2022-09-07T05:15:05.557Z,10.77
2022-09-07T05:17:32.485Z,10.70
2022-09-07T05:19:59.390Z,9.87
2022-09-07T05:22:26.374Z,10.33
2022-09-07T05:24:53.364Z,10.03
2022-09-07T05:27:20.342Z,9.67
2022-09-07T05:30:03.768Z,9.90
2022-09-07T05:32:32.159Z,9.43
2022-09-07T05:34:59.099Z,9.43
2022-09-07T05:37:25.970Z,8.73
2022-09-07T05:39:56.942Z,9.70
2022-09-07T05:42:24.117Z,10.17
2022-09-07T05:44:50.950Z,10.30
2022-09-07T05:47:17.861Z,10.43
2022-09-07T05:49:44.730Z,10.70
2022-09-07T05:52:11.644Z,10.33
2022-09-07T05:54:38.913Z,9.70
2022-09-07T05:57:07.135Z,9.43
2022-09-07T05:59:34.428Z,9.73
2022-09-07T06:02:01.665Z,9.43
2022-09-07T06:04:28.666Z,9.30
2022-09-07T06:12:29.442Z,7.83
2022-09-07T06:14:56.431Z,7.10
2022-09-07T06:17:23.287Z,6.80
2022-09-07T06:19:50.171Z,6.20
2022-09-07T06:22:17.063Z,5.83
2022-09-07T06:24:43.953Z,5.90
2022-09-07T06:27:11.084Z,5.67
2022-09-07T06:29:38.137Z,4.33
2022-09-07T06:34:52.086Z,4.72
2022-09-07T06:37:18.945Z,4.13
2022-09-07T06:39:45.950Z,3.40
2022-09-07T06:42:12.822Z,3.10
2022-09-07T06:44:39.850Z,3.28
2022-09-07T06:47:06.737Z,3.00
2022-09-07T06:49:33.641Z,3.00
2022-09-07T06:52:00.485Z,3.97
2022-09-07T06:57:14.340Z,2.50
2022-09-07T06:59:41.271Z,2.72
2022-09-07T07:02:10.255Z,2.67
2022-09-07T07:04:40.906Z,2.15
2022-09-07T07:07:13.665Z,2.40
2022-09-07T07:09:41.475Z,2.20
2022-09-07T07:12:08.862Z,2.15
2022-09-07T07:14:37.375Z,2.42
2022-09-07T07:17:06.868Z,2.20
2022-09-07T07:19:33.884Z,2.30
2022-09-07T07:24:47.585Z,2.08
2022-09-07T07:27:14.504Z,1.98
2022-09-07T07:29:41.462Z,1.90
2022-09-07T07:32:08.369Z,2.10
2022-09-07T07:34:35.260Z,2.17
2022-09-07T07:37:02.101Z,2.10
2022-09-07T07:42:15.768Z,2.13
2022-09-07T07:44:42.716Z,1.63
2022-09-07T07:47:10.082Z,1.70
2022-09-07T07:49:36.976Z,1.88
2022-09-07T07:54:53.072Z,2.05
2022-09-07T07:57:20.089Z,2.22
2022-09-07T07:59:46.993Z,1.90
2022-09-07T08:02:16.482Z,1.90
2022-09-07T08:04:43.433Z,1.98
2022-09-07T08:07:12.079Z,1.77
2022-09-07T08:09:47.435Z,2.13
2022-09-07T08:12:17.644Z,2.05
2022-09-07T08:14:45.021Z,2.13
2022-09-07T08:17:13.704Z,1.80
2022-09-07T08:19:41.375Z,1.90
2022-09-07T08:22:10.060Z,2.10
2022-09-07T08:24:37.060Z,2.33
2022-09-07T08:27:04.081Z,2.00
2022-09-07T08:29:34.614Z,2.00
2022-09-07T08:32:03.858Z,2.20
2022-09-07T08:34:30.956Z,2.20
2022-09-07T08:36:58.123Z,2.10
2022-09-07T08:39:25.040Z,1.70
2022-09-07T08:42:10.397Z,1.90
2022-09-07T08:44:46.178Z,2.40
2022-09-07T08:47:18.781Z,2.40
2022-09-07T08:50:01.563Z,1.73
2022-09-07T08:52:37.622Z,1.80
2022-09-07T08:55:17.201Z,2.00
2022-09-07T08:58:14.530Z,1.80
2022-09-07T09:01:30.762Z,1.95
2022-09-07T09:06:54.170Z,2.15
2022-09-07T09:09:29.977Z,1.90
2022-09-07T09:12:37.565Z,2.10
2022-09-07T09:15:21.333Z,1.73
2022-09-07T09:18:00.220Z,2.10
2022-09-07T09:20:37.162Z,3.97
2022-09-07T09:23:13.429Z,2.30
2022-09-07T09:25:47.450Z,2.13
2022-09-07T09:28:14.395Z,2.03
2022-09-07T09:30:42.207Z,1.98
2022-09-07T09:33:27.356Z,1.95
2022-09-07T09:36:00.237Z,1.98
2022-09-07T09:38:34.596Z,1.70
2022-09-07T09:41:06.376Z,1.95
2022-09-07T09:43:55.004Z,1.92
2022-09-07T09:46:37.574Z,2.50
2022-09-07T09:49:19.785Z,1.52
2022-09-07T09:54:43.397Z,1.27
2022-09-07T09:57:16.519Z,1.70
2022-09-07T10:00:02.777Z,2.00
2022-09-07T10:05:41.035Z,1.50
2022-09-07T10:08:37.348Z,1.52
2022-09-07T10:11:08.181Z,1.48
2022-09-07T10:13:43.411Z,1.60
2022-09-07T10:16:14.957Z,1.90
2022-09-07T10:18:55.674Z,1.70
2022-09-07T10:21:26.861Z,1.85
2022-09-07T10:24:01.163Z,1.70
2022-09-07T10:26:30.340Z,1.60
2022-09-07T10:29:36.012Z,1.42
2022-09-07T10:32:18.575Z,1.85
2022-09-07T10:35:08.787Z,1.70
2022-09-07T10:38:11.522Z,1.80
2022-09-07T10:40:51.252Z,1.83
2022-09-07T10:43:42.880Z,1.65
2022-09-07T10:49:40.926Z,2.00
2022-09-07T10:52:29.056Z,1.63
2022-09-07T10:54:56.050Z,1.73
2022-09-07T10:57:25.757Z,2.13
2022-09-07T11:00:12.092Z,1.60
2022-09-07T11:06:15.871Z,1.70
2022-09-07T11:09:17.191Z,1.92
2022-09-07T11:12:06.227Z,1.60
2022-09-07T11:14:45.335Z,1.23
2022-09-07T11:17:31.176Z,1.00
2022-09-07T11:20:24.371Z,1.10
2022-09-07T11:23:16.634Z,1.60
2022-09-07T11:26:07.500Z,1.20
2022-09-07T11:32:06.951Z,1.70
2022-09-07T11:34:41.116Z,1.40
2022-09-07T11:37:22.030Z,1.60
2022-09-07T11:39:57.926Z,1.02
2022-09-07T11:42:53.923Z,1.38
2022-09-07T11:45:36.155Z,1.40
2022-09-07T11:48:10.471Z,1.05
2022-09-07T11:50:43.448Z,1.13
2022-09-07T11:53:43.027Z,1.38
2022-09-07T11:56:26.668Z,1.40
2022-09-07T11:59:05.624Z,1.10
2022-09-07T12:01:53.605Z,1.17
2022-09-07T12:04:32.538Z,1.10
2022-09-07T12:07:25.630Z,1.15
2022-09-07T12:10:07.557Z,1.20
2022-09-07T12:13:25.000Z,1.02
2022-09-07T12:16:28.621Z,1.10
2022-09-07T12:19:22.435Z,1.08
2022-09-07T12:21:55.923Z,1.23
2022-09-07T12:24:51.562Z,0.90
2022-09-07T12:27:21.561Z,1.02
2022-09-07T12:29:48.400Z,1.15
2022-09-07T12:32:54.283Z,1.00
2022-09-07T12:35:28.330Z,1.02
2022-09-07T12:37:56.640Z,1.48
2022-09-07T12:40:29.836Z,1.27
2022-09-07T12:43:15.001Z,0.70
2022-09-07T12:45:44.609Z,1.20
2022-09-07T12:48:17.732Z,1.08
2022-09-07T12:50:56.784Z,1.30
2022-09-07T12:53:47.908Z,1.10
2022-09-07T12:56:45.492Z,0.80
2022-09-07T12:59:31.121Z,1.15
2022-09-07T13:02:10.076Z,0.75
2022-09-07T13:04:50.087Z,1.20
2022-09-07T13:07:43.350Z,1.10
2022-09-07T13:10:40.708Z,1.08
2022-09-07T13:17:16.107Z,1.70
2022-09-07T13:19:50.695Z,1.60
2022-09-07T13:22:32.701Z,1.40
2022-09-07T13:25:24.701Z,1.30
2022-09-07T13:28:00.570Z,1.08
2022-09-07T13:30:33.665Z,1.30
2022-09-07T13:33:26.021Z,1.33
2022-09-07T13:35:56.667Z,1.40
2022-09-07T13:38:23.672Z,1.58
2022-09-07T13:40:52.411Z,1.10
2022-09-07T13:43:24.425Z,1.30
2022-09-07T13:45:54.502Z,1.27
2022-09-07T13:48:30.857Z,1.27
2022-09-07T13:51:22.611Z,1.30
2022-09-07T13:53:52.599Z,1.52
2022-09-07T13:56:46.851Z,1.20
2022-09-07T13:59:26.527Z,1.10
2022-09-07T14:01:55.327Z,1.42
2022-09-07T14:04:41.962Z,1.67
2022-09-07T14:07:15.310Z,1.13
2022-09-07T14:09:42.724Z,1.20
2022-09-07T14:12:19.272Z,1.50
2022-09-07T14:14:47.277Z,1.40
2022-09-07T14:17:18.115Z,1.33
2022-09-07T14:19:46.500Z,1.40
2022-09-07T14:22:23.268Z,1.10
2022-09-07T14:24:51.344Z,1.30
2022-09-07T14:27:25.356Z,1.30
2022-09-07T14:29:52.665Z,1.77
2022-09-07T14:32:23.925Z,1.52
2022-09-07T14:34:52.136Z,1.40
2022-09-07T14:37:22.000Z,1.50
2022-09-07T14:39:50.735Z,1.92
2022-09-07T14:42:22.128Z,1.85
2022-09-07T14:44:50.261Z,1.70
2022-09-07T14:47:33.968Z,1.75
2022-09-07T14:50:06.059Z,1.45
2022-09-07T14:53:33.368Z,1.70
2022-09-07T14:55:37.421Z,1.58
2022-09-07T14:58:13.500Z,1.52
2022-09-07T15:00:42.592Z,1.40
2022-09-07T15:03:25.020Z,1.20
2022-09-07T15:05:51.910Z,1.33
2022-09-07T15:08:21.076Z,1.33
2022-09-07T15:11:32.975Z,1.33
2022-09-07T15:13:36.374Z,1.45
2022-09-07T15:16:24.708Z,1.17
2022-09-07T15:18:56.575Z,1.20
2022-09-07T15:21:24.706Z,1.45
2022-09-07T15:23:53.214Z,1.40
2022-09-07T15:29:11.203Z,1.10
2022-09-07T15:31:42.199Z,1.52
2022-09-07T15:34:13.924Z,1.40
2022-09-07T15:36:43.286Z,1.65
2022-09-07T15:39:26.646Z,1.50
2022-09-07T15:41:53.958Z,1.58
2022-09-07T15:44:25.180Z,1.25
2022-09-07T15:49:49.531Z,1.40
2022-09-07T15:52:17.556Z,1.30
2022-09-07T15:54:44.485Z,1.35
2022-09-07T15:59:58.539Z,1.45
2022-09-07T16:05:13.325Z,1.20
2022-09-07T16:10:31.075Z,1.40
2022-09-07T16:13:03.278Z,1.23
2022-09-07T16:15:46.058Z,1.25
2022-09-07T16:18:17.748Z,1.35
2022-09-07T16:20:45.569Z,1.50
2022-09-07T16:23:15.189Z,1.30
2022-09-07T16:25:46.105Z,1.73
2022-09-07T16:28:13.090Z,2.00
2022-09-07T16:30:40.893Z,2.40
2022-09-07T16:33:07.975Z,1.60
2022-09-07T16:35:35.055Z,1.27
2022-09-07T16:40:50.914Z,1.38
2022-09-07T16:43:17.778Z,1.30
2022-09-07T16:48:33.384Z,1.40
2022-09-07T16:51:02.650Z,1.40
2022-09-07T16:53:31.835Z,1.52
2022-09-07T16:56:06.730Z,1.50
2022-09-07T16:58:36.150Z,1.50
2022-09-07T17:01:08.632Z,1.20
2022-09-07T17:03:39.364Z,1.02
2022-09-07T17:06:08.249Z,1.30
2022-09-07T17:08:36.505Z,1.30
2022-09-07T17:11:11.883Z,1.20
2022-09-07T17:13:40.855Z,1.48
2022-09-07T17:16:11.961Z,1.40
2022-09-07T17:21:36.662Z,1.33
2022-09-07T17:24:05.667Z,1.25
2022-09-07T17:26:33.241Z,1.60
2022-09-07T17:29:00.963Z,1.02
2022-09-07T17:34:18.325Z,1.30
2022-09-07T17:36:45.371Z,1.60
2022-09-07T17:39:17.146Z,1.40
2022-09-07T17:41:45.089Z,1.65
2022-09-07T17:44:12.392Z,1.50
2022-09-07T17:46:39.345Z,1.73
2022-09-07T17:49:09.553Z,1.73
2022-09-07T17:51:36.671Z,1.45
2022-09-07T17:54:12.924Z,1.40
2022-09-07T17:56:41.042Z,1.42
2022-09-07T18:01:56.056Z,1.52
2022-09-07T18:04:23.375Z,1.90
2022-09-07T18:06:50.907Z,1.50
2022-09-07T18:09:19.317Z,1.60
2022-09-07T18:11:48.165Z,1.60
2022-09-07T18:14:16.171Z,1.50
2022-09-07T18:16:45.052Z,1.55
2022-09-07T18:19:12.916Z,1.70
2022-09-07T18:21:42.142Z,1.65
2022-09-07T18:24:29.516Z,1.85
2022-09-07T18:26:56.496Z,1.75
2022-09-07T18:29:29.524Z,1.63
2022-09-07T18:31:58.493Z,1.90
2022-09-07T18:34:25.663Z,1.90
2022-09-07T18:36:52.510Z,2.05
2022-09-07T18:39:19.351Z,1.58
2022-09-07T18:41:46.292Z,2.00
2022-09-07T18:47:00.544Z,1.90
2022-09-07T18:49:27.452Z,1.90
2022-09-07T18:54:41.604Z,1.75
2022-09-07T18:57:08.725Z,2.00
2022-09-07T18:59:35.923Z,1.80
2022-09-07T19:02:04.904Z,1.80
2022-09-07T19:07:21.029Z,1.75
2022-09-07T19:09:48.420Z,2.15
2022-09-07T19:12:15.840Z,1.98
2022-09-07T19:14:42.701Z,2.00
2022-09-07T19:17:12.627Z,2.20
2022-09-07T19:23:27.413Z,2.22
2022-09-07T19:25:55.219Z,2.03
2022-09-07T19:28:22.075Z,2.00
2022-09-07T19:30:48.821Z,2.22
2022-09-07T19:33:15.669Z,2.10
2022-09-07T19:35:42.914Z,2.13
2022-09-07T19:38:10.251Z,2.10
2022-09-07T19:40:37.120Z,2.20
2022-09-07T19:43:04.348Z,2.20
2022-09-07T19:45:31.461Z,2.30
2022-09-07T19:47:58.353Z,2.13
2022-09-07T19:50:25.230Z,2.22
2022-09-07T19:52:52.059Z,2.03
2022-09-07T19:55:18.992Z,2.30
2022-09-07T19:57:47.474Z,2.60
2022-09-07T20:00:14.795Z,2.47
2022-09-07T20:02:41.626Z,2.50
2022-09-07T20:05:11.785Z,2.40
2022-09-07T20:07:38.641Z,2.20
2022-09-07T20:10:06.765Z,2.30
2022-09-07T20:12:33.637Z,2.40
2022-09-07T20:15:00.499Z,2.20
2022-09-07T20:17:30.704Z,2.03
2022-09-07T20:20:01.476Z,2.20
2022-09-07T20:22:28.587Z,2.28
2022-09-07T20:24:55.495Z,2.28
2022-09-07T20:27:22.539Z,2.35
2022-09-07T20:29:50.834Z,2.47
2022-09-07T20:32:17.867Z,2.20
2022-09-07T20:34:46.164Z,3.00
2022-09-07T20:37:13.108Z,2.53
2022-09-07T20:39:40.117Z,3.10
2022-09-07T20:42:07.830Z,3.20
2022-09-07T20:44:34.763Z,3.20
2022-09-07T20:47:01.778Z,2.67
2022-09-07T20:49:28.753Z,2.90
2022-09-07T20:51:55.519Z,2.90
2022-09-07T20:54:22.658Z,2.95
2022-09-07T20:56:49.555Z,2.50
2022-09-07T20:59:16.556Z,2.67
2022-09-07T21:01:43.706Z,2.50
2022-09-07T21:04:10.669Z,2.50
2022-09-07T21:06:37.600Z,1.93
2022-09-07T21:09:04.526Z,2.28
2022-09-07T21:11:34.174Z,2.17
2022-09-07T21:14:07.192Z,1.85
2022-09-07T21:16:35.621Z,2.22
2022-09-07T21:19:04.807Z,1.90
2022-09-07T21:21:38.573Z,2.00
2022-09-07T21:24:07.169Z,1.93
2022-09-07T21:26:34.219Z,1.90
2022-09-07T21:29:03.807Z,2.00
2022-09-07T21:31:31.957Z,1.77
2022-09-07T21:34:00.300Z,2.13
2022-09-07T21:36:28.233Z,2.30
2022-09-07T21:38:55.855Z,2.00
2022-09-07T21:41:24.742Z,2.07
2022-09-07T21:43:59.582Z,2.35
2022-09-07T21:46:27.674Z,2.00
2022-09-07T21:48:55.752Z,2.00
2022-09-07T21:51:23.283Z,2.07
2022-09-07T21:53:58.346Z,2.10
2022-09-07T21:56:26.307Z,2.20
2022-09-07T21:58:55.295Z,2.37
2022-09-07T22:01:23.161Z,2.37
2022-09-07T22:04:01.162Z,2.10
2022-09-07T22:06:28.853Z,2.13
2022-09-07T22:08:56.227Z,2.23
2022-09-07T22:11:24.783Z,2.33
2022-09-07T22:13:56.709Z,2.20
2022-09-07T22:16:24.224Z,2.53
2022-09-07T22:18:52.210Z,2.47
2022-09-07T22:21:24.820Z,2.40
2022-09-07T22:23:56.024Z,1.90
2022-09-07T22:26:25.782Z,2.40
2022-09-07T22:28:52.669Z,2.20
2022-09-07T22:31:25.074Z,2.20
2022-09-07T22:33:53.018Z,2.40
2022-09-07T22:36:21.965Z,2.20
2022-09-07T22:38:52.577Z,2.47
2022-09-07T22:41:34.445Z,2.03
2022-09-07T22:44:02.213Z,2.13
2022-09-07T22:46:31.075Z,2.10
2022-09-07T22:48:59.069Z,1.90
2022-09-07T22:51:27.161Z,2.03
2022-09-07T22:53:54.814Z,2.00
2022-09-07T22:56:24.789Z,2.23
2022-09-07T22:59:12.223Z,2.30
2022-09-07T23:01:39.735Z,2.20
2022-09-07T23:04:07.859Z,2.20
2022-09-07T23:06:37.524Z,2.37
2022-09-07T23:09:10.838Z,2.63
2022-09-07T23:11:38.459Z,2.50
2022-09-07T23:14:07.940Z,2.40
2022-09-07T23:16:35.111Z,2.07
2022-09-07T23:19:02.107Z,2.30
2022-09-07T23:21:29.281Z,2.00
2022-09-07T23:23:58.195Z,2.10
2022-09-07T23:26:27.816Z,2.20
2022-09-07T23:28:57.801Z,1.90
2022-09-07T23:31:25.871Z,2.57
2022-09-07T23:33:52.833Z,2.30
2022-09-07T23:36:20.507Z,2.10
2022-09-07T23:38:48.173Z,2.30
2022-09-07T23:41:18.020Z,1.80
2022-09-07T23:43:45.276Z,1.97
2022-09-07T23:46:13.607Z,2.30
2022-09-07T23:48:42.594Z,2.20
2022-09-07T23:51:09.521Z,1.90
2022-09-07T23:53:36.372Z,1.90
2022-09-07T23:56:03.952Z,2.20
2022-09-07T23:58:30.825Z,2.00
